createdAt,value
2018-09-15T00:02:27.982Z,88.63
2018-09-15T00:04:58.757Z,88.60
2018-09-15T00:07:29.752Z,88.68
2018-09-15T00:10:00.493Z,88.25
2018-09-15T00:12:32.121Z,88.58
2018-09-15T00:15:02.614Z,88.44
2018-09-15T00:17:33.714Z,88.50
2018-09-15T00:20:04.779Z,88.13
2018-09-15T00:22:35.670Z,88.48
2018-09-15T00:25:07.000Z,88.21
2018-09-15T00:27:37.744Z,87.78
2018-09-15T00:30:08.578Z,87.93
2018-09-15T00:32:39.628Z,88.05
2018-09-15T00:35:10.520Z,87.52
2018-09-15T00:37:41.474Z,88.03
2018-09-15T00:40:13.060Z,87.76
2018-09-15T00:42:43.759Z,87.81
2018-09-15T00:45:14.962Z,87.73
2018-09-15T00:47:45.843Z,87.65
2018-09-15T00:50:16.689Z,87.75
2018-09-15T00:52:47.565Z,87.76
2018-09-15T00:55:18.755Z,87.97
2018-09-15T00:57:49.680Z,87.65
2018-09-15T01:00:21.649Z,87.78
2018-09-15T01:02:51.468Z,88.02
2018-09-15T01:05:23.012Z,87.94
2018-09-15T01:07:53.847Z,87.83
2018-09-15T01:10:24.616Z,87.85
2018-09-15T01:12:55.604Z,87.93
2018-09-15T01:15:26.799Z,88.03
2018-09-15T01:17:57.650Z,88.30
2018-09-15T01:20:28.510Z,87.93
2018-09-15T01:22:59.880Z,87.71
2018-09-15T01:25:30.688Z,87.79
2018-09-15T01:28:01.561Z,87.63
2018-09-15T01:30:33.184Z,87.77
2018-09-15T01:33:04.015Z,88.15
2018-09-15T01:35:34.737Z,88.26
2018-09-15T01:38:05.889Z,88.78
2018-09-15T01:40:36.866Z,88.42
2018-09-15T01:43:07.723Z,87.97
2018-09-15T01:45:38.900Z,88.52
2018-09-15T01:48:09.898Z,88.55
2018-09-15T01:50:40.758Z,88.25
2018-09-15T01:53:11.632Z,88.40
2018-09-15T01:55:42.766Z,88.42
2018-09-15T01:58:13.752Z,88.38
2018-09-15T02:00:44.588Z,88.59
2018-09-15T02:03:15.545Z,88.51
2018-09-15T02:05:46.968Z,88.65
2018-09-15T02:08:17.925Z,88.55
2018-09-15T02:10:48.718Z,88.58
2018-09-15T02:13:19.581Z,88.41
2018-09-15T02:15:50.533Z,88.53
2018-09-15T02:18:21.557Z,88.53
2018-09-15T02:20:51.700Z,88.12
2018-09-15T02:23:22.675Z,87.85
2018-09-15T02:25:53.416Z,87.88
2018-09-15T02:28:24.863Z,88.10
2018-09-15T02:30:55.616Z,87.65
2018-09-15T02:33:26.664Z,87.75
2018-09-15T02:35:57.471Z,88.17
2018-09-15T02:38:28.912Z,88.41
2018-09-15T02:40:59.725Z,88.23
2018-09-15T02:43:30.632Z,88.25
2018-09-15T02:46:01.378Z,87.84
2018-09-15T02:48:32.742Z,87.65
2018-09-15T02:51:09.595Z,87.29
2018-09-15T02:53:39.705Z,87.59
2018-09-15T02:56:09.407Z,87.62
2018-09-15T02:58:39.303Z,87.59
2018-09-15T03:01:09.704Z,87.40
2018-09-15T03:03:39.505Z,87.29
2018-09-15T03:06:09.794Z,87.44
2018-09-15T03:08:40.710Z,87.28
2018-09-15T03:11:11.581Z,87.13
2018-09-15T03:13:42.564Z,86.81
2018-09-15T03:16:13.420Z,87.12
2018-09-15T03:18:44.921Z,87.01
2018-09-15T03:21:15.696Z,86.95
2018-09-15T03:23:46.625Z,86.76
2018-09-15T03:26:17.461Z,86.83
2018-09-15T03:28:49.045Z,86.63
2018-09-15T03:31:20.367Z,86.34
2018-09-15T03:33:50.956Z,86.37
2018-09-15T03:36:21.772Z,86.65
2018-09-15T03:38:52.849Z,86.65
2018-09-15T03:41:23.682Z,86.50
2018-09-15T03:43:54.699Z,86.73
2018-09-15T03:46:25.486Z,86.64
2018-09-15T03:48:56.942Z,86.42
2018-09-15T03:51:27.774Z,86.68
2018-09-15T03:53:58.919Z,86.94
2018-09-15T03:56:29.710Z,86.86
2018-09-15T03:59:00.684Z,86.79
2018-09-15T04:01:31.533Z,86.52
2018-09-15T04:04:02.872Z,86.41
2018-09-15T04:06:34.118Z,86.64
2018-09-15T04:09:05.057Z,86.35
2018-09-15T04:11:35.592Z,86.90
2018-09-15T04:14:06.660Z,86.95
2018-09-15T04:16:37.541Z,86.65
2018-09-15T04:19:08.978Z,86.66
2018-09-15T04:21:39.610Z,86.89
2018-09-15T04:24:19.071Z,86.96
2018-09-15T04:26:49.341Z,86.97
2018-09-15T04:29:19.385Z,86.53
2018-09-15T04:31:49.615Z,86.78
2018-09-15T04:34:19.425Z,86.71
2018-09-15T04:36:49.285Z,86.73
2018-09-15T04:39:19.485Z,86.75
2018-09-15T04:41:49.425Z,86.73
2018-09-15T04:44:19.192Z,86.99
2018-09-15T04:46:49.808Z,86.85
2018-09-15T04:49:20.678Z,87.01
2018-09-15T04:51:51.478Z,87.10
2018-09-15T04:54:22.833Z,87.28
2018-09-15T04:56:53.670Z,87.19
2018-09-15T04:59:24.599Z,87.01
2018-09-15T05:01:55.760Z,87.31
2018-09-15T05:04:27.231Z,87.42
2018-09-15T05:06:57.707Z,87.59
2018-09-15T05:09:29.675Z,87.06
2018-09-15T05:11:59.475Z,87.16
2018-09-15T05:14:30.991Z,87.05
2018-09-15T05:17:01.658Z,87.47
2018-09-15T05:19:32.747Z,86.83
2018-09-15T05:22:03.570Z,86.79
2018-09-15T05:24:34.998Z,86.84
2018-09-15T05:27:05.738Z,87.23
2018-09-15T05:29:36.713Z,87.42
2018-09-15T05:32:08.132Z,87.24
2018-09-15T05:34:38.802Z,87.08
2018-09-15T05:37:09.593Z,87.49
2018-09-15T05:39:40.674Z,86.90
2018-09-15T05:42:11.480Z,87.20
2018-09-15T05:44:42.956Z,87.21
2018-09-15T05:47:13.782Z,87.09
2018-09-15T05:49:44.791Z,86.77
2018-09-15T05:52:15.589Z,86.64
2018-09-15T05:54:46.991Z,86.84
2018-09-15T05:57:18.108Z,86.68
2018-09-15T05:59:48.903Z,86.48
2018-09-15T06:02:19.703Z,86.70
2018-09-15T06:04:50.667Z,86.48
2018-09-15T06:07:23.536Z,86.73
2018-09-15T06:09:53.452Z,86.56
2018-09-15T06:12:23.851Z,86.96
2018-09-15T06:14:54.920Z,86.82
2018-09-15T06:17:25.808Z,87.26
2018-09-15T06:19:56.908Z,87.06
2018-09-15T06:22:28.122Z,87.69
2018-09-15T06:24:58.928Z,87.27
2018-09-15T06:27:29.801Z,87.30
2018-09-15T06:30:00.796Z,87.30
2018-09-15T06:32:31.712Z,87.02
2018-09-15T06:35:02.573Z,86.42
2018-09-15T06:37:33.945Z,86.73
2018-09-15T06:40:04.943Z,86.26
2018-09-15T06:42:35.912Z,86.42
2018-09-15T06:45:08.188Z,86.94
2018-09-15T06:47:38.165Z,86.97
2018-09-15T06:50:08.750Z,86.93
2018-09-15T06:52:39.912Z,86.50
2018-09-15T06:55:10.939Z,86.42
2018-09-15T06:57:42.121Z,85.82
2018-09-15T07:00:12.905Z,85.82
2018-09-15T07:02:43.941Z,86.48
2018-09-15T07:05:14.752Z,86.54
2018-09-15T07:07:45.992Z,86.17
2018-09-15T07:10:16.970Z,86.16
2018-09-15T07:12:47.832Z,86.44
2018-09-15T07:15:18.665Z,86.50
2018-09-15T07:17:49.742Z,85.92
2018-09-15T07:20:20.630Z,86.22
2018-09-15T07:22:51.576Z,86.66
2018-09-15T07:25:23.094Z,86.65
2018-09-15T07:27:53.801Z,86.57
2018-09-15T07:30:24.642Z,86.75
2018-09-15T07:32:55.705Z,85.88
2018-09-15T07:35:26.529Z,85.38
2018-09-15T07:37:57.866Z,84.93
2018-09-15T07:40:28.763Z,84.76
2018-09-15T07:43:00.144Z,84.47
2018-09-15T07:45:30.970Z,83.71
2018-09-15T07:48:01.819Z,82.67
2018-09-15T07:50:32.654Z,82.52
2018-09-15T07:53:04.527Z,82.80
2018-09-15T07:55:34.418Z,82.91
2018-09-15T07:58:05.869Z,82.89
2018-09-15T08:00:36.879Z,82.47
2018-09-15T08:03:13.811Z,82.72
2018-09-15T08:05:43.607Z,82.75
2018-09-15T08:08:13.567Z,82.96
2018-09-15T08:10:43.815Z,83.30
2018-09-15T08:13:13.664Z,84.06
2018-09-15T08:15:43.590Z,82.89
2018-09-15T08:18:13.611Z,82.40
2018-09-15T08:20:44.597Z,82.48
2018-09-15T08:23:15.434Z,82.11
2018-09-15T08:25:46.873Z,80.81
2018-09-15T08:28:18.258Z,80.58
2018-09-15T08:30:48.918Z,79.34
2018-09-15T08:33:19.714Z,80.19
2018-09-15T08:35:50.739Z,80.64
2018-09-15T08:38:21.976Z,80.59
2018-09-15T08:40:52.948Z,79.54
2018-09-15T08:43:23.856Z,78.96
2018-09-15T08:45:55.374Z,79.46
2018-09-15T08:48:26.010Z,77.98
2018-09-15T08:50:56.612Z,77.13
2018-09-15T08:53:29.560Z,75.66
2018-09-15T08:55:59.358Z,75.52
2018-09-15T08:58:29.901Z,75.54
2018-09-15T09:01:00.774Z,74.95
2018-09-15T09:03:31.628Z,74.82
2018-09-15T09:06:02.604Z,74.02
2018-09-15T09:08:33.521Z,73.57
2018-09-15T09:11:04.680Z,73.88
2018-09-15T09:13:35.571Z,72.80
2018-09-15T09:16:06.712Z,73.00
2018-09-15T09:18:37.763Z,72.55
2018-09-15T09:21:08.709Z,71.74
2018-09-15T09:23:39.553Z,71.46
2018-09-15T09:26:10.481Z,70.76
2018-09-15T09:28:42.097Z,71.05
2018-09-15T09:31:12.940Z,69.39
2018-09-15T09:33:43.791Z,69.55
2018-09-15T09:36:23.100Z,67.83
2018-09-15T09:38:53.422Z,69.25
2018-09-15T09:41:23.162Z,66.93
2018-09-15T09:43:53.445Z,66.72
2018-09-15T09:46:23.328Z,65.89
2018-09-15T09:48:53.142Z,66.37
2018-09-15T09:51:23.005Z,65.96
2018-09-15T09:53:52.898Z,66.23
2018-09-15T09:56:24.244Z,65.26
2018-09-15T09:58:54.191Z,65.73
2018-09-15T10:01:59.964Z,64.99
2018-09-15T10:04:31.355Z,62.48
2018-09-15T10:07:01.229Z,64.85
2018-09-15T10:09:31.192Z,62.65
2018-09-15T10:12:01.009Z,60.98
2018-09-15T10:14:30.751Z,62.35
2018-09-15T10:17:01.742Z,62.10
2018-09-15T10:19:31.700Z,63.39
2018-09-15T10:22:01.939Z,63.00
2018-09-15T10:24:32.649Z,60.81
2018-09-15T10:27:02.869Z,62.25
2018-09-15T10:29:32.686Z,61.78
2018-09-15T10:32:02.628Z,62.71
2018-09-15T10:34:32.769Z,62.84
2018-09-15T10:37:02.716Z,61.91
2018-09-15T10:39:33.054Z,62.17
2018-09-15T10:42:02.826Z,61.07
2018-09-15T10:44:32.774Z,61.52
2018-09-15T10:47:02.750Z,59.72
2018-09-15T10:49:32.701Z,59.97
2018-09-15T10:52:02.833Z,58.42
2018-09-15T10:54:32.616Z,58.52
2018-09-15T10:57:03.755Z,57.69
2018-09-15T10:59:33.739Z,55.85
2018-09-15T11:02:03.844Z,55.50
2018-09-15T11:04:33.659Z,55.13
2018-09-15T11:07:03.669Z,54.23
2018-09-15T11:09:36.647Z,55.41
2018-09-15T11:12:06.710Z,54.35
2018-09-15T11:14:36.597Z,54.26
2018-09-15T11:17:06.857Z,52.78
2018-09-15T11:19:36.667Z,53.55
2018-09-15T11:22:06.744Z,53.38
2018-09-15T11:24:36.531Z,53.51
2018-09-15T11:27:06.672Z,54.59
2018-09-15T11:29:45.612Z,52.50
2018-09-15T11:32:15.482Z,52.29
2018-09-15T11:34:45.604Z,52.79
2018-09-15T11:37:15.518Z,52.88
2018-09-15T11:39:45.739Z,52.03
2018-09-15T11:42:15.892Z,50.54
2018-09-15T11:44:45.717Z,48.72
2018-09-15T11:47:15.461Z,49.18
2018-09-15T11:49:45.361Z,48.40
2018-09-15T11:52:15.165Z,50.56
2018-09-15T11:54:45.758Z,51.49
2018-09-15T11:57:15.590Z,52.78
2018-09-15T11:59:45.402Z,52.97
2018-09-15T12:02:15.321Z,53.55
2018-09-15T12:04:45.142Z,53.62
2018-09-15T12:07:15.321Z,53.35
2018-09-15T12:09:45.660Z,51.80
2018-09-15T12:12:15.518Z,51.30
2018-09-15T12:14:45.462Z,49.95
2018-09-15T12:17:16.770Z,48.94
2018-09-15T12:19:47.705Z,45.18
2018-09-15T12:22:18.862Z,44.92
2018-09-15T12:24:49.740Z,48.79
2018-09-15T12:27:20.493Z,49.31
2018-09-15T12:29:52.025Z,49.24
2018-09-15T12:32:22.866Z,48.87
2018-09-15T12:34:53.743Z,48.50
2018-09-15T12:37:24.544Z,49.44
2018-09-15T12:39:55.676Z,48.71
2018-09-15T12:42:26.613Z,47.53
2018-09-15T12:44:57.543Z,46.86
2018-09-15T12:47:28.529Z,43.27
2018-09-15T12:49:59.486Z,41.19
2018-09-15T12:52:30.781Z,45.08
2018-09-15T12:55:01.974Z,47.13
2018-09-15T12:57:32.728Z,48.11
2018-09-15T13:00:03.676Z,46.54
2018-09-15T13:02:34.450Z,46.00
2018-09-15T13:05:05.656Z,45.70
2018-09-15T13:07:36.430Z,44.64
2018-09-15T13:10:08.267Z,42.31
2018-09-15T13:12:44.148Z,41.63
2018-09-15T13:15:14.176Z,41.21
2018-09-15T13:17:44.468Z,41.79
2018-09-15T13:20:14.428Z,42.33
2018-09-15T13:22:44.345Z,43.30
2018-09-15T13:25:14.071Z,44.13
2018-09-15T13:27:44.799Z,44.64
2018-09-15T13:30:15.648Z,44.79
2018-09-15T13:32:46.657Z,44.63
2018-09-15T13:35:17.537Z,43.06
2018-09-15T13:37:48.900Z,42.82
2018-09-15T13:40:19.949Z,42.62
2018-09-15T13:42:50.751Z,42.94
2018-09-15T13:45:21.734Z,42.10
2018-09-15T13:47:52.958Z,41.03
2018-09-15T13:50:23.649Z,41.63
2018-09-15T13:52:54.585Z,43.47
2018-09-15T13:55:25.475Z,43.17
2018-09-15T13:57:56.484Z,42.50
2018-09-15T14:00:27.693Z,43.16
2018-09-15T14:02:58.462Z,42.94
2018-09-15T14:05:29.939Z,43.52
2018-09-15T14:08:00.787Z,42.29
2018-09-15T14:10:32.071Z,41.23
2018-09-15T14:13:03.260Z,41.78
2018-09-15T14:15:33.772Z,42.22
2018-09-15T14:18:04.596Z,40.35
2018-09-15T14:20:35.487Z,40.25
2018-09-15T14:23:06.536Z,39.42
2018-09-15T14:25:37.411Z,40.26
2018-09-15T14:28:08.660Z,39.09
2018-09-15T14:30:39.455Z,39.47
2018-09-15T14:33:10.438Z,39.81
2018-09-15T14:35:41.487Z,38.78
2018-09-15T14:38:12.766Z,39.53
2018-09-15T14:40:43.605Z,39.39
2018-09-15T14:43:14.429Z,39.29
2018-09-15T14:45:53.888Z,39.57
2018-09-15T14:48:24.000Z,39.11
2018-09-15T14:50:54.292Z,38.48
2018-09-15T14:53:24.103Z,38.86
2018-09-15T14:55:53.848Z,38.77
2018-09-15T14:58:24.106Z,38.07
2018-09-15T15:00:53.942Z,39.24
2018-09-15T15:03:24.131Z,39.22
2018-09-15T15:05:53.901Z,38.62
2018-09-15T15:08:24.863Z,38.08
2018-09-15T15:10:55.610Z,38.96
2018-09-15T15:13:29.633Z,38.34
2018-09-15T15:15:59.541Z,39.38
2018-09-15T15:18:29.396Z,39.01
2018-09-15T15:20:59.726Z,39.58
2018-09-15T15:23:30.729Z,39.51
2018-09-15T15:26:01.687Z,39.32
2018-09-15T15:28:32.699Z,40.33
2018-09-15T15:31:03.619Z,40.10
2018-09-15T15:33:34.465Z,39.75
2018-09-15T15:36:05.713Z,40.04
2018-09-15T15:38:36.515Z,40.10
2018-09-15T15:41:07.522Z,40.39
2018-09-15T15:43:38.523Z,39.11
2018-09-15T15:46:10.292Z,40.03
2018-09-15T15:48:40.868Z,39.70
2018-09-15T15:51:11.603Z,40.64
2018-09-15T15:53:42.494Z,41.12
2018-09-15T15:56:13.517Z,41.60
2018-09-15T15:58:45.018Z,40.76
2018-09-15T16:01:15.973Z,41.19
2018-09-15T16:03:47.161Z,40.89
2018-09-15T16:06:17.605Z,41.53
2018-09-15T16:08:48.548Z,41.03
2018-09-15T16:11:19.848Z,41.75
2018-09-15T16:13:51.077Z,41.85
2018-09-15T16:16:21.789Z,42.11
2018-09-15T16:18:52.719Z,41.89
2018-09-15T16:21:23.443Z,41.82
2018-09-15T16:23:55.332Z,42.17
2018-09-15T16:26:25.733Z,42.31
2018-09-15T16:28:56.510Z,42.67
2018-09-15T16:31:27.074Z,42.40
2018-09-15T16:33:57.735Z,42.76
2018-09-15T16:36:28.461Z,42.42
2018-09-15T16:39:00.116Z,42.59
2018-09-15T16:41:30.681Z,43.01
2018-09-15T16:44:01.454Z,43.49
2018-09-15T16:46:32.706Z,43.73
2018-09-15T16:49:03.558Z,43.79
2018-09-15T16:51:34.504Z,43.85
2018-09-15T16:54:06.160Z,44.20
2018-09-15T16:56:37.437Z,44.59
2018-09-15T16:59:07.795Z,44.54
2018-09-15T17:01:39.302Z,45.20
2018-09-15T17:04:09.987Z,45.36
2018-09-15T17:06:40.599Z,45.99
2018-09-15T17:09:12.776Z,46.06
2018-09-15T17:11:42.518Z,45.71
2018-09-15T17:14:13.770Z,45.96
2018-09-15T17:16:44.610Z,45.91
2018-09-15T17:19:15.484Z,46.31
2018-09-15T17:21:47.742Z,46.10
2018-09-15T17:24:17.765Z,46.90
2018-09-15T17:26:48.695Z,47.13
2018-09-15T17:29:19.449Z,47.37
2018-09-15T17:31:50.081Z,47.54
2018-09-15T17:34:20.721Z,47.71
2018-09-15T17:36:51.565Z,47.99
2018-09-15T17:39:22.330Z,47.93
2018-09-15T17:41:53.794Z,48.13
2018-09-15T17:44:24.618Z,48.69
2018-09-15T17:46:55.488Z,48.55
2018-09-15T17:49:26.697Z,48.79
2018-09-15T17:51:57.519Z,48.58
2018-09-15T17:54:28.397Z,48.86
2018-09-15T17:56:59.825Z,48.93
2018-09-15T17:59:30.708Z,49.23
2018-09-15T18:02:02.053Z,49.28
2018-09-15T18:04:32.696Z,49.53
2018-09-15T18:07:03.754Z,49.17
2018-09-15T18:09:34.621Z,49.56
2018-09-15T18:12:06.066Z,49.40
2018-09-15T18:14:36.913Z,49.45
2018-09-15T18:17:07.790Z,50.08
2018-09-15T18:19:38.564Z,50.30
2018-09-15T18:22:09.582Z,50.54
2018-09-15T18:24:40.718Z,51.14
2018-09-15T18:27:11.559Z,52.05
2018-09-15T18:29:42.867Z,52.96
2018-09-15T18:32:12.708Z,53.32
2018-09-15T18:34:43.431Z,53.86
2018-09-15T18:37:14.768Z,54.21
2018-09-15T18:39:44.768Z,54.30
2018-09-15T18:42:15.555Z,55.25
2018-09-15T18:44:46.488Z,55.38
2018-09-15T18:47:17.405Z,56.52
2018-09-15T18:49:48.689Z,57.16
2018-09-15T18:52:19.429Z,57.32
2018-09-15T18:54:57.248Z,58.17
2018-09-15T18:57:27.149Z,58.21
2018-09-15T18:59:57.609Z,58.33
2018-09-15T19:02:27.424Z,58.56
2018-09-15T19:04:57.247Z,58.94
2018-09-15T19:07:27.588Z,59.75
2018-09-15T19:09:57.383Z,59.99
2018-09-15T19:12:28.005Z,60.34
2018-09-15T19:14:58.633Z,60.91
2018-09-15T19:17:29.759Z,61.32
2018-09-15T19:20:00.745Z,61.55
2018-09-15T19:22:31.485Z,61.48
2018-09-15T19:25:02.954Z,60.50
2018-09-15T19:27:33.727Z,60.50
2018-09-15T19:30:05.025Z,59.86
2018-09-15T19:32:35.720Z,60.07
2018-09-15T19:35:06.770Z,59.95
2018-09-15T19:37:37.616Z,59.80
2018-09-15T19:40:09.304Z,59.40
2018-09-15T19:42:39.897Z,59.66
2018-09-15T19:45:10.835Z,59.73
2018-09-15T19:47:41.682Z,59.77
2018-09-15T19:50:12.611Z,59.70
2018-09-15T19:52:43.469Z,59.54
2018-09-15T19:55:14.440Z,59.77
2018-09-15T19:57:45.676Z,59.79
2018-09-15T20:00:16.806Z,59.98
2018-09-15T20:02:47.644Z,60.02
2018-09-15T20:05:18.586Z,60.17
2018-09-15T20:07:49.613Z,59.77
2018-09-15T20:10:20.462Z,60.32
2018-09-15T20:12:52.175Z,60.23
2018-09-15T20:15:23.796Z,60.11
2018-09-15T20:17:51.929Z,60.50
2018-09-15T20:20:23.419Z,60.41
2018-09-15T20:22:56.120Z,61.19
2018-09-15T20:25:26.877Z,62.04
2018-09-15T20:28:00.408Z,62.72
2018-09-15T20:30:30.336Z,62.40
2018-09-15T20:33:00.328Z,62.69
2018-09-15T20:35:30.408Z,63.22
2018-09-15T20:38:01.740Z,63.44
2018-09-15T20:40:32.724Z,64.01
2018-09-15T20:43:04.061Z,63.41
2018-09-15T20:45:34.992Z,64.37
2018-09-15T20:48:05.897Z,64.39
2018-09-15T20:50:36.585Z,64.23
2018-09-15T20:53:07.893Z,63.93
2018-09-15T20:55:38.617Z,64.29
2018-09-15T20:58:09.529Z,64.61
2018-09-15T21:00:40.342Z,64.98
2018-09-15T21:03:11.805Z,64.82
2018-09-15T21:05:42.618Z,64.67
2018-09-15T21:08:13.518Z,64.62
2018-09-15T21:10:44.785Z,65.00
2018-09-15T21:13:15.888Z,65.37
2018-09-15T21:15:46.787Z,65.47
2018-09-15T21:18:17.623Z,65.23
2018-09-15T21:20:48.708Z,65.95
2018-09-15T21:23:20.218Z,65.92
2018-09-15T21:25:50.848Z,65.98
2018-09-15T21:28:21.638Z,66.13
2018-09-15T21:30:52.416Z,65.94
2018-09-15T21:33:23.821Z,66.27
2018-09-15T21:35:54.590Z,66.77
2018-09-15T21:38:25.680Z,67.26
2018-09-15T21:40:56.448Z,66.97
2018-09-15T21:43:27.846Z,67.30
2018-09-15T21:45:58.647Z,67.99
2018-09-15T21:48:29.685Z,67.48
2018-09-15T21:51:00.460Z,68.17
2018-09-15T21:53:31.782Z,67.93
2018-09-15T21:56:02.514Z,67.39
2018-09-15T21:58:33.446Z,67.90
2018-09-15T22:01:08.485Z,67.82
2018-09-15T22:03:43.702Z,67.82
2018-09-15T22:06:13.605Z,68.39
2018-09-15T22:08:43.377Z,68.15
2018-09-15T22:11:13.347Z,68.66
2018-09-15T22:13:43.345Z,69.03
2018-09-15T22:16:13.110Z,68.50
2018-09-15T22:18:43.568Z,68.72
2018-09-15T22:21:13.377Z,68.39
2018-09-15T22:23:43.882Z,68.55
2018-09-15T22:26:14.741Z,68.43
2018-09-15T22:28:45.977Z,69.20
2018-09-15T22:31:16.163Z,68.64
2018-09-15T22:33:47.224Z,69.16
2018-09-15T22:36:17.713Z,68.85
2018-09-15T22:38:48.644Z,69.07
2018-09-15T22:41:19.430Z,68.94
2018-09-15T22:43:49.941Z,69.37
2018-09-15T22:46:21.174Z,69.36
2018-09-15T22:48:52.601Z,69.62
2018-09-15T22:51:22.465Z,69.61
2018-09-15T22:53:53.921Z,69.52
2018-09-15T22:56:24.667Z,69.90
2018-09-15T22:58:55.516Z,70.01
2018-09-15T23:01:26.380Z,70.33
2018-09-15T23:04:02.705Z,70.74
2018-09-15T23:06:32.624Z,70.87
2018-09-15T23:09:02.496Z,70.75
2018-09-15T23:11:32.368Z,70.71
2018-09-15T23:14:02.482Z,70.70
2018-09-15T23:16:32.508Z,71.14
2018-09-15T23:19:03.909Z,71.46
2018-09-15T23:21:34.709Z,71.68
2018-09-15T23:24:05.518Z,71.67
2018-09-15T23:26:36.970Z,71.61
2018-09-15T23:29:07.862Z,72.09
2018-09-15T23:31:38.377Z,72.02
2018-09-15T23:34:15.058Z,71.50
2018-09-15T23:36:45.700Z,71.45
2018-09-15T23:39:15.444Z,71.25
2018-09-15T23:41:45.300Z,71.76
2018-09-15T23:44:15.204Z,71.83
2018-09-15T23:46:45.411Z,71.86
2018-09-15T23:49:15.261Z,71.54
2018-09-15T23:51:45.781Z,71.62
2018-09-15T23:54:16.642Z,71.79
2018-09-15T23:56:47.479Z,72.48
2018-09-15T23:59:19.184Z,72.16
